createdAt,value
2019-02-16T00:01:09.709Z,10.73
2019-02-16T00:03:39.292Z,11.27
2019-02-16T00:06:08.781Z,11.17
2019-02-16T00:08:37.966Z,11.10
2019-02-16T00:11:07.239Z,10.43
2019-02-16T00:13:36.554Z,11.37
2019-02-16T00:16:05.829Z,9.33
2019-02-16T00:18:35.168Z,10.43
2019-02-16T00:21:04.966Z,10.80
2019-02-16T00:23:34.765Z,9.60
2019-02-16T00:26:04.143Z,9.30
2019-02-16T00:28:33.385Z,9.07
2019-02-16T00:31:02.856Z,9.80
2019-02-16T00:33:32.457Z,10.93
2019-02-16T00:36:01.981Z,9.33
2019-02-16T00:38:31.160Z,9.73
2019-02-16T00:41:00.350Z,8.67
2019-02-16T00:43:29.831Z,8.90
2019-02-16T00:45:59.227Z,7.90
2019-02-16T00:48:28.477Z,8.37
2019-02-16T00:50:58.643Z,7.93
2019-02-16T00:53:27.985Z,8.47
2019-02-16T00:55:57.558Z,8.03
2019-02-16T00:58:26.990Z,8.60
2019-02-16T01:00:56.521Z,8.20
2019-02-16T01:03:25.854Z,8.20
2019-02-16T01:05:55.217Z,8.20
2019-02-16T01:08:24.663Z,8.30
2019-02-16T01:10:53.888Z,8.77
2019-02-16T01:13:23.053Z,8.40
2019-02-16T01:15:52.514Z,8.70
2019-02-16T01:18:21.673Z,9.03
2019-02-16T01:20:50.974Z,8.83
2019-02-16T01:23:20.127Z,9.53
2019-02-16T01:25:49.322Z,9.93
2019-02-16T01:28:18.666Z,9.53
2019-02-16T01:30:48.203Z,9.23
2019-02-16T01:33:18.698Z,9.93
2019-02-16T01:35:48.135Z,9.63
2019-02-16T01:38:17.619Z,9.90
2019-02-16T01:40:46.818Z,9.90
2019-02-16T01:43:16.416Z,10.57
2019-02-16T01:45:45.582Z,10.27
2019-02-16T01:48:14.799Z,9.87
2019-02-16T01:50:43.960Z,9.90
2019-02-16T01:53:13.156Z,10.67
2019-02-16T01:55:42.349Z,9.93
2019-02-16T01:58:11.591Z,10.20
2019-02-16T02:00:40.981Z,10.10
2019-02-16T02:03:10.219Z,10.37
2019-02-16T02:05:39.412Z,10.00
2019-02-16T02:08:08.921Z,10.80
2019-02-16T02:10:38.373Z,10.70
2019-02-16T02:13:08.225Z,10.53
2019-02-16T02:15:37.457Z,10.17
2019-02-16T02:18:06.930Z,11.27
2019-02-16T02:20:36.438Z,10.70
2019-02-16T02:23:05.693Z,10.47
2019-02-16T02:25:35.220Z,11.80
2019-02-16T02:28:04.665Z,10.70
2019-02-16T02:30:34.110Z,11.30
2019-02-16T02:33:03.420Z,10.00
2019-02-16T02:35:32.578Z,10.63
2019-02-16T02:38:01.826Z,10.27
2019-02-16T02:40:31.147Z,11.00
2019-02-16T02:43:00.399Z,10.80
2019-02-16T02:45:29.601Z,10.83
2019-02-16T02:47:59.054Z,10.57
2019-02-16T02:50:28.313Z,10.70
2019-02-16T02:52:57.490Z,10.37
2019-02-16T02:55:26.838Z,11.07
2019-02-16T02:57:56.108Z,10.50
2019-02-16T03:00:25.317Z,10.57
2019-02-16T03:02:54.848Z,10.50
2019-02-16T03:05:24.113Z,10.20
2019-02-16T03:07:53.281Z,10.30
2019-02-16T03:10:22.511Z,10.60
2019-02-16T03:12:51.691Z,10.60
2019-02-16T03:15:21.030Z,10.03
2019-02-16T03:17:50.288Z,10.80
2019-02-16T03:20:19.854Z,10.03
2019-02-16T03:23:11.631Z,10.40
2019-02-16T03:25:41.314Z,10.30
2019-02-16T03:28:36.194Z,9.97
2019-02-16T03:32:01.223Z,10.43
2019-02-16T03:34:54.185Z,9.23
2019-02-16T03:38:05.562Z,9.93
2019-02-16T03:40:34.809Z,9.17
2019-02-16T03:43:04.210Z,9.30
2019-02-16T03:45:33.407Z,9.40
2019-02-16T03:48:02.849Z,9.80
2019-02-16T03:50:32.353Z,9.70
2019-02-16T03:53:01.944Z,9.07
2019-02-16T03:55:31.426Z,9.83
2019-02-16T03:58:00.625Z,9.80
2019-02-16T04:00:29.884Z,9.47
2019-02-16T04:02:59.222Z,8.80
2019-02-16T04:05:28.424Z,9.50
2019-02-16T04:07:57.625Z,9.43
2019-02-16T04:10:26.819Z,9.53
2019-02-16T04:12:56.388Z,9.13
2019-02-16T04:15:25.585Z,10.13
2019-02-16T04:17:55.147Z,9.97
2019-02-16T04:20:24.306Z,9.97
2019-02-16T04:22:53.786Z,9.47
2019-02-16T04:25:22.981Z,11.00
2019-02-16T04:27:52.450Z,9.33
2019-02-16T04:30:21.693Z,10.40
2019-02-16T04:32:50.953Z,10.40
2019-02-16T04:35:20.221Z,10.23
2019-02-16T04:37:49.418Z,10.80
2019-02-16T04:40:18.892Z,10.80
2019-02-16T04:42:48.142Z,11.00
2019-02-16T04:45:17.435Z,11.23
2019-02-16T04:47:46.902Z,9.93
2019-02-16T04:50:16.169Z,10.90
2019-02-16T04:52:45.427Z,10.53
2019-02-16T04:55:14.648Z,10.63
2019-02-16T04:57:43.903Z,10.97
2019-02-16T05:00:13.127Z,11.47
2019-02-16T05:02:42.387Z,11.20
2019-02-16T05:05:11.615Z,10.73
2019-02-16T05:07:40.851Z,10.40
2019-02-16T05:10:10.233Z,10.17
2019-02-16T05:12:39.414Z,11.00
2019-02-16T05:15:09.050Z,10.43
2019-02-16T05:17:38.230Z,9.53
2019-02-16T05:20:07.523Z,10.70
2019-02-16T05:22:44.367Z,9.60
2019-02-16T05:25:07.918Z,8.97
2019-02-16T05:27:37.180Z,9.70
2019-02-16T05:30:07.010Z,9.07
2019-02-16T05:32:36.230Z,9.40
2019-02-16T05:35:05.423Z,9.63
2019-02-16T05:37:34.799Z,9.47
2019-02-16T05:40:04.158Z,9.50
2019-02-16T05:42:33.401Z,9.53
2019-02-16T05:45:02.672Z,9.93
2019-02-16T05:47:32.021Z,9.30
2019-02-16T05:50:01.200Z,10.40
2019-02-16T05:52:30.381Z,9.30
2019-02-16T05:54:59.624Z,10.30
2019-02-16T05:57:28.892Z,11.03
2019-02-16T05:59:58.209Z,9.30
2019-02-16T06:02:27.898Z,9.63
2019-02-16T06:04:57.088Z,11.27
2019-02-16T06:07:26.320Z,13.03
2019-02-16T06:09:55.493Z,10.13
2019-02-16T06:12:24.745Z,9.90
2019-02-16T06:14:54.007Z,10.73
2019-02-16T06:17:23.277Z,12.53
2019-02-16T06:19:52.466Z,13.97
2019-02-16T06:22:21.689Z,10.57
2019-02-16T06:24:50.862Z,9.93
2019-02-16T06:27:20.149Z,10.17
2019-02-16T06:29:49.344Z,9.57
2019-02-16T06:32:19.656Z,9.63
2019-02-16T06:34:51.281Z,10.60
2019-02-16T06:37:24.420Z,10.07
2019-02-16T06:39:54.026Z,10.37
2019-02-16T06:42:23.364Z,10.50
2019-02-16T06:44:52.993Z,10.10
2019-02-16T06:47:22.256Z,10.53
2019-02-16T06:49:51.511Z,10.23
2019-02-16T06:52:21.283Z,9.77
2019-02-16T06:54:50.485Z,9.80
2019-02-16T06:57:25.407Z,10.00
2019-02-16T06:59:54.672Z,9.50
2019-02-16T07:02:24.967Z,9.90
2019-02-16T07:04:54.274Z,9.83
2019-02-16T07:07:23.524Z,8.93
2019-02-16T07:09:52.897Z,8.87
2019-02-16T07:12:22.162Z,9.40
2019-02-16T07:14:51.419Z,9.17
2019-02-16T07:17:41.567Z,10.30
2019-02-16T07:20:10.966Z,10.20
2019-02-16T07:22:40.238Z,8.83
2019-02-16T07:25:09.459Z,8.73
2019-02-16T07:27:38.917Z,9.37
2019-02-16T07:30:09.852Z,8.80
2019-02-16T07:32:39.421Z,8.87
2019-02-16T07:35:08.940Z,8.97
2019-02-16T07:37:38.321Z,9.17
2019-02-16T07:40:08.210Z,8.73
2019-02-16T07:42:54.432Z,10.00
2019-02-16T07:45:50.976Z,8.87
2019-02-16T07:48:26.994Z,8.83
2019-02-16T07:51:18.545Z,9.30
2019-02-16T07:53:55.326Z,8.87
2019-02-16T07:56:38.582Z,9.17
2019-02-16T07:59:17.926Z,8.60
2019-02-16T08:02:09.236Z,9.10
2019-02-16T08:04:44.242Z,9.30
2019-02-16T08:07:32.597Z,10.53
2019-02-16T08:10:19.863Z,9.70
2019-02-16T08:13:08.575Z,8.90
2019-02-16T08:16:11.711Z,8.70
2019-02-16T08:19:06.103Z,9.00
2019-02-16T08:21:45.303Z,9.13
2019-02-16T08:24:32.741Z,9.90
2019-02-16T08:27:13.193Z,8.27
2019-02-16T08:30:07.387Z,8.80
2019-02-16T08:32:57.914Z,9.23
2019-02-16T08:35:36.500Z,9.30
2019-02-16T08:38:12.253Z,9.70
2019-02-16T08:41:03.389Z,9.97
2019-02-16T08:43:57.705Z,10.07
2019-02-16T08:47:04.344Z,10.37
2019-02-16T08:49:43.950Z,9.47
2019-02-16T08:52:30.770Z,12.10
2019-02-16T08:55:08.110Z,11.67
2019-02-16T08:57:49.669Z,11.37
2019-02-16T09:00:41.225Z,12.13
2019-02-16T09:03:38.976Z,11.90
2019-02-16T09:06:27.594Z,11.67
2019-02-16T09:09:33.109Z,11.37
2019-02-16T09:12:21.198Z,11.77
2019-02-16T09:15:06.507Z,12.17
2019-02-16T09:18:07.092Z,11.30
2019-02-16T09:20:59.235Z,11.97
2019-02-16T09:23:37.278Z,12.00
2019-02-16T09:26:20.214Z,11.53
2019-02-16T09:29:03.661Z,11.03
2019-02-16T09:31:52.376Z,13.63
2019-02-16T09:34:43.710Z,11.90
2019-02-16T09:37:29.208Z,12.53
2019-02-16T09:40:17.637Z,11.90
2019-02-16T09:43:01.657Z,11.80
2019-02-16T09:45:53.266Z,11.10
2019-02-16T09:48:47.983Z,11.00
2019-02-16T09:51:33.432Z,10.73
2019-02-16T09:54:14.457Z,11.77
2019-02-16T09:56:55.203Z,11.77
2019-02-16T09:59:49.791Z,12.10
2019-02-16T10:02:41.052Z,11.93
2019-02-16T10:05:24.051Z,12.30
2019-02-16T10:08:18.476Z,12.37
2019-02-16T10:11:10.783Z,11.20
2019-02-16T10:14:04.940Z,11.70
2019-02-16T10:17:02.731Z,11.60
2019-02-16T10:19:59.965Z,10.67
2019-02-16T10:23:06.627Z,11.23
2019-02-16T10:26:00.821Z,11.27
2019-02-16T10:28:47.184Z,11.47
2019-02-16T10:31:40.685Z,10.77
2019-02-16T10:34:24.326Z,11.70
2019-02-16T10:37:06.271Z,11.53
2019-02-16T10:40:03.888Z,11.27
2019-02-16T10:42:43.092Z,11.50
2019-02-16T10:45:49.956Z,10.03
2019-02-16T10:48:36.653Z,11.47
2019-02-16T10:51:16.386Z,11.53
2019-02-16T10:54:13.587Z,11.00
2019-02-16T10:57:02.173Z,11.43
2019-02-16T10:59:40.414Z,12.63
2019-02-16T11:02:32.079Z,11.47
2019-02-16T11:05:19.648Z,11.33
2019-02-16T11:07:55.725Z,11.60
2019-02-16T11:10:47.415Z,11.53
2019-02-16T11:13:38.833Z,11.53
2019-02-16T11:16:33.314Z,11.57
2019-02-16T11:19:16.151Z,11.60
2019-02-16T11:22:22.950Z,12.87
2019-02-16T11:25:18.469Z,11.87
2019-02-16T11:28:08.943Z,12.20
2019-02-16T11:30:55.991Z,12.17
2019-02-16T11:33:43.003Z,13.07
2019-02-16T11:36:21.223Z,12.47
2019-02-16T11:39:01.417Z,14.43
2019-02-16T11:41:58.441Z,12.60
2019-02-16T11:44:52.783Z,12.43
2019-02-16T11:47:41.105Z,13.03
2019-02-16T11:50:26.454Z,12.57
2019-02-16T11:53:13.169Z,13.27
2019-02-16T11:56:16.648Z,12.47
2019-02-16T11:58:59.809Z,11.93
2019-02-16T12:01:53.070Z,13.03
2019-02-16T12:04:36.876Z,14.27
2019-02-16T12:07:37.078Z,13.07
2019-02-16T12:10:35.291Z,14.27
2019-02-16T12:13:29.459Z,13.07
2019-02-16T12:16:19.631Z,12.17
2019-02-16T12:19:14.020Z,12.60
2019-02-16T12:22:20.736Z,12.90
2019-02-16T12:25:10.172Z,13.23
2019-02-16T12:27:58.486Z,13.57
2019-02-16T12:30:50.295Z,13.50
2019-02-16T12:33:35.322Z,13.00
2019-02-16T12:36:12.766Z,12.90
2019-02-16T12:38:48.094Z,12.93
2019-02-16T12:41:48.298Z,12.90
2019-02-16T12:44:43.100Z,14.13
2019-02-16T12:47:41.886Z,12.80
2019-02-16T12:50:32.982Z,12.97
2019-02-16T12:53:39.462Z,12.80
2019-02-16T12:56:26.415Z,13.90
2019-02-16T12:59:17.322Z,13.47
2019-02-16T13:02:03.935Z,12.03
2019-02-16T13:04:52.371Z,12.60
2019-02-16T13:07:42.798Z,13.48
2019-02-16T13:10:34.130Z,12.25
2019-02-16T13:13:22.847Z,12.93
2019-02-16T13:16:09.732Z,13.15
2019-02-16T13:19:03.888Z,13.80
2019-02-16T13:21:37.536Z,13.75
2019-02-16T13:24:19.057Z,12.45
2019-02-16T13:27:07.550Z,12.23
2019-02-16T13:29:46.226Z,13.20
2019-02-16T13:32:36.970Z,13.15
2019-02-16T13:35:22.831Z,13.15
2019-02-16T13:38:11.175Z,13.43
2019-02-16T13:40:53.686Z,13.60
2019-02-16T13:43:35.894Z,13.58
2019-02-16T13:46:28.889Z,13.78
2019-02-16T13:49:32.489Z,13.68
2019-02-16T13:52:26.816Z,15.58
2019-02-16T13:55:17.859Z,14.00
2019-02-16T13:57:57.188Z,17.77
2019-02-16T14:00:35.041Z,12.82
2019-02-16T14:03:10.748Z,12.88
2019-02-16T14:05:58.433Z,13.85
2019-02-16T14:08:45.165Z,17.10
2019-02-16T14:11:33.999Z,13.72
2019-02-16T14:14:15.011Z,12.93
2019-02-16T14:16:55.536Z,12.40
2019-02-16T14:19:24.900Z,12.73
2019-02-16T14:21:54.163Z,13.10
2019-02-16T14:24:41.267Z,13.08
2019-02-16T14:27:10.555Z,13.98
2019-02-16T14:29:39.862Z,12.68
2019-02-16T14:32:09.413Z,12.18
2019-02-16T14:34:38.727Z,12.63
2019-02-16T14:37:19.694Z,13.38
2019-02-16T14:39:49.561Z,12.47
2019-02-16T14:42:18.845Z,12.50
2019-02-16T14:44:49.408Z,13.13
2019-02-16T14:47:19.099Z,14.28
2019-02-16T14:49:48.354Z,12.23
2019-02-16T14:52:17.652Z,13.38
2019-02-16T14:54:47.683Z,12.85
2019-02-16T14:57:17.068Z,12.73
2019-02-16T14:59:46.399Z,13.35
2019-02-16T15:02:15.876Z,13.18
2019-02-16T15:04:45.305Z,13.80
2019-02-16T15:07:15.458Z,13.98
2019-02-16T15:09:44.933Z,13.10
2019-02-16T15:12:14.595Z,12.78
2019-02-16T15:14:44.169Z,12.15
2019-02-16T15:17:14.394Z,13.05
2019-02-16T15:19:43.656Z,15.03
2019-02-16T15:22:13.707Z,13.55
2019-02-16T15:24:43.251Z,13.45
2019-02-16T15:27:13.054Z,15.25
2019-02-16T15:29:42.955Z,12.47
2019-02-16T15:32:14.854Z,13.38
2019-02-16T15:34:44.150Z,13.10
2019-02-16T15:37:13.390Z,13.62
2019-02-16T15:39:42.754Z,12.98
2019-02-16T15:42:12.354Z,14.10
2019-02-16T15:44:42.664Z,13.48
2019-02-16T15:47:11.921Z,12.37
2019-02-16T15:49:42.612Z,12.10
2019-02-16T15:52:12.058Z,12.85
2019-02-16T15:54:42.261Z,13.05
2019-02-16T15:57:11.616Z,13.08
2019-02-16T15:59:41.404Z,12.80
2019-02-16T16:02:10.640Z,12.43
2019-02-16T16:04:40.101Z,12.93
2019-02-16T16:07:14.772Z,13.00
2019-02-16T16:10:06.313Z,13.65
2019-02-16T16:12:51.699Z,12.82
2019-02-16T16:15:44.653Z,13.18
2019-02-16T16:18:34.723Z,12.68
2019-02-16T16:21:24.593Z,12.68
2019-02-16T16:24:06.701Z,12.93
2019-02-16T16:27:01.284Z,13.93
2019-02-16T16:29:49.299Z,11.63
2019-02-16T16:32:43.742Z,13.05
2019-02-16T16:35:28.394Z,13.08
2019-02-16T16:38:06.350Z,14.73
2019-02-16T16:40:47.134Z,13.30
2019-02-16T16:43:39.734Z,13.38
2019-02-16T16:46:46.313Z,14.10
2019-02-16T16:49:24.613Z,12.83
2019-02-16T16:52:18.681Z,13.60
2019-02-16T16:55:05.415Z,12.80
2019-02-16T16:57:41.468Z,13.30
2019-02-16T17:00:33.823Z,12.17
2019-02-16T17:03:40.644Z,13.47
2019-02-16T17:06:25.505Z,12.77
2019-02-16T17:09:16.757Z,12.83
2019-02-16T17:12:09.323Z,12.97
2019-02-16T17:14:55.452Z,15.17
2019-02-16T17:17:46.776Z,14.30
2019-02-16T17:20:42.172Z,13.33
2019-02-16T17:23:17.199Z,15.13
2019-02-16T17:26:08.662Z,15.20
2019-02-16T17:28:56.901Z,14.60
2019-02-16T17:31:43.650Z,16.50
2019-02-16T17:34:37.786Z,16.03
2019-02-16T17:37:24.968Z,15.50
2019-02-16T17:40:19.732Z,18.23
2019-02-16T17:43:12.740Z,15.93
2019-02-16T17:45:59.833Z,21.00
2019-02-16T17:48:46.443Z,26.73
2019-02-16T17:51:33.391Z,24.87
2019-02-16T17:54:11.129Z,24.50
2019-02-16T17:56:51.889Z,23.63
2019-02-16T17:59:26.228Z,26.53
2019-02-16T18:02:12.829Z,25.63
2019-02-16T18:05:19.303Z,26.77
2019-02-16T18:08:00.042Z,22.20
2019-02-16T18:10:42.058Z,18.23
2019-02-16T18:13:33.125Z,17.00
2019-02-16T18:16:21.622Z,15.77
2019-02-16T18:19:12.910Z,13.60
2019-02-16T18:22:01.330Z,15.47
2019-02-16T18:24:39.136Z,17.00
2019-02-16T18:27:27.367Z,16.87
2019-02-16T18:30:18.678Z,15.87
2019-02-16T18:33:05.696Z,15.80
2019-02-16T18:35:52.853Z,14.70
2019-02-16T18:38:41.225Z,13.90
2019-02-16T18:41:28.305Z,16.27
2019-02-16T18:44:15.110Z,28.17
2019-02-16T18:46:52.247Z,28.93
2019-02-16T18:49:43.798Z,21.60
2019-02-16T18:52:23.570Z,24.63
2019-02-16T18:55:17.943Z,19.90
2019-02-16T18:58:00.846Z,20.80
2019-02-16T19:00:47.494Z,20.57
2019-02-16T19:03:33.339Z,20.73
2019-02-16T19:06:19.956Z,23.17
2019-02-16T19:09:06.221Z,24.20
2019-02-16T19:11:55.764Z,21.07
2019-02-16T19:14:53.171Z,19.30
2019-02-16T19:17:40.583Z,18.20
2019-02-16T19:20:38.059Z,17.57
2019-02-16T19:23:32.898Z,15.93
2019-02-16T19:26:24.645Z,14.77
2019-02-16T19:29:01.173Z,16.47
2019-02-16T19:32:04.849Z,17.97
2019-02-16T19:34:52.543Z,19.83
2019-02-16T19:37:40.393Z,19.50
2019-02-16T19:40:30.787Z,22.27
2019-02-16T19:43:11.622Z,20.53
2019-02-16T19:46:07.025Z,21.53
2019-02-16T19:48:53.964Z,21.20
2019-02-16T19:51:40.746Z,19.73
2019-02-16T19:54:44.352Z,19.17
2019-02-16T19:57:27.013Z,17.40
2019-02-16T20:00:09.476Z,19.63
2019-02-16T20:02:50.443Z,18.10
2019-02-16T20:05:38.530Z,16.47
2019-02-16T20:08:36.173Z,15.50
2019-02-16T20:11:22.956Z,13.23
2019-02-16T20:14:14.348Z,18.63
2019-02-16T20:17:00.788Z,14.90
2019-02-16T20:19:55.388Z,11.47
2019-02-16T20:22:33.160Z,13.90
2019-02-16T20:25:17.140Z,11.33
2019-02-16T20:28:03.124Z,11.97
2019-02-16T20:30:54.795Z,12.23
2019-02-16T20:33:46.654Z,12.43
2019-02-16T20:36:31.408Z,13.37
2019-02-16T20:39:39.197Z,12.93
2019-02-16T20:42:22.012Z,14.37
2019-02-16T20:45:23.010Z,14.83
2019-02-16T20:48:14.318Z,14.30
2019-02-16T20:51:03.394Z,17.50
2019-02-16T20:54:01.545Z,18.63
2019-02-16T20:56:55.491Z,18.63
2019-02-16T20:59:47.131Z,16.83
2019-02-16T21:02:29.419Z,16.73
2019-02-16T21:05:14.756Z,19.60
2019-02-16T21:08:01.607Z,23.23
2019-02-16T21:10:40.709Z,16.57
2019-02-16T21:13:22.302Z,15.57
2019-02-16T21:16:01.014Z,15.37
2019-02-16T21:19:01.158Z,16.37
2019-02-16T21:21:50.788Z,14.13
2019-02-16T21:24:26.209Z,15.43
2019-02-16T21:27:10.469Z,15.17
2019-02-16T21:29:55.781Z,14.57
2019-02-16T21:32:44.400Z,15.17
2019-02-16T21:35:32.052Z,14.53
2019-02-16T21:38:17.396Z,14.43
2019-02-16T21:41:08.626Z,14.37
2019-02-16T21:43:50.670Z,15.43
2019-02-16T21:46:37.834Z,15.90
2019-02-16T21:49:33.835Z,17.50
2019-02-16T21:52:19.221Z,17.20
2019-02-16T21:55:10.550Z,17.43
2019-02-16T21:57:57.204Z,20.63
2019-02-16T22:00:53.896Z,21.57
2019-02-16T22:03:46.542Z,21.07
2019-02-16T22:06:34.791Z,18.77
2019-02-16T22:09:15.634Z,19.13
2019-02-16T22:12:17.137Z,20.67
2019-02-16T22:14:49.111Z,22.20
2019-02-16T22:17:19.931Z,20.87
2019-02-16T22:19:50.683Z,24.63
2019-02-16T22:22:21.322Z,23.13
2019-02-16T22:24:51.810Z,19.50
2019-02-16T22:27:21.085Z,22.37
2019-02-16T22:29:50.264Z,20.43
2019-02-16T22:32:20.000Z,21.07
2019-02-16T22:34:49.589Z,22.07
2019-02-16T22:37:18.838Z,21.30
2019-02-16T22:39:48.945Z,22.27
2019-02-16T22:42:18.879Z,20.80
2019-02-16T22:44:48.958Z,21.00
2019-02-16T22:47:20.214Z,20.80
2019-02-16T22:49:49.376Z,20.10
2019-02-16T22:52:18.873Z,19.57
2019-02-16T22:54:48.276Z,32.03
2019-02-16T22:57:17.813Z,29.83
2019-02-16T22:59:47.314Z,27.50
2019-02-16T23:02:17.755Z,24.17
2019-02-16T23:04:47.334Z,23.03
2019-02-16T23:07:16.944Z,21.37
2019-02-16T23:09:46.341Z,20.60
2019-02-16T23:12:16.100Z,20.03
2019-02-16T23:14:45.311Z,20.03
2019-02-16T23:17:14.973Z,23.63
2019-02-16T23:19:44.382Z,27.73
2019-02-16T23:22:14.003Z,26.90
2019-02-16T23:24:43.530Z,24.30
2019-02-16T23:27:13.517Z,23.90
2019-02-16T23:29:42.868Z,23.43
2019-02-16T23:32:12.314Z,23.07
2019-02-16T23:34:41.488Z,20.87
2019-02-16T23:37:10.774Z,20.63
2019-02-16T23:39:40.045Z,20.67
2019-02-16T23:42:09.264Z,23.13
2019-02-16T23:44:39.042Z,21.33
2019-02-16T23:47:08.294Z,22.17
2019-02-16T23:49:37.525Z,22.07
2019-02-16T23:52:06.899Z,22.03
2019-02-16T23:54:36.247Z,22.03
2019-02-16T23:57:05.750Z,21.30
2019-02-16T23:59:35.005Z,20.43
